Time;durP1;ratioP1;P1;durP2;ratioP2;P2;SDS_P1;SDS_P2;PMS_P1;PMS_P2;Temp;Humidity;BMP_temperature;BMP_pressure;BME280_temperature;BME280_humidity;BME280_pressure;Samples;Min_cycle;Max_cycle;Signal;HPM_P1;HPM_P2
2023/06/04 00:09:56;;;;;;;2.40;1.60;;;17.40;42.00;;;;;;20911534;28;20232;-68
2023/06/04 00:19:57;;;;;;;4.27;1.57;;;17.30;42.20;;;;;;20911264;28;20209;-70
2023/06/04 00:29:59;;;;;;;3.50;1.60;;;17.20;42.40;;;;;;20916667;28;20234;-68
2023/06/04 00:40:01;;;;;;;6.03;1.70;;;17.10;42.40;;;;;;20855491;28;20219;-60
2023/06/04 00:50:03;;;;;;;3.83;2.07;;;17.00;42.60;;;;;;20843387;28;20249;-71
2023/06/04 01:00:07;;;;;;;2.83;2.00;;;16.80;43.00;;;;;;20842279;28;20203;-69
2023/06/04 01:10:09;;;;;;;3.63;1.93;;;16.60;43.80;;;;;;20842032;28;20334;-60
2023/06/04 01:20:37;;;;;;;3.43;2.07;;;16.40;45.00;;;;;;20840786;28;20656;-69
2023/06/04 01:30:45;;;;;;;7.67;2.67;;;16.30;46.50;;;;;;20839797;28;20234;-63
2023/06/04 01:40:47;;;;;;;2.23;1.80;;;16.10;47.30;;;;;;20917368;28;20200;-65
2023/06/04 01:50:49;;;;;;;5.20;1.90;;;15.90;47.60;;;;;;20920923;28;20242;-69
2023/06/04 02:00:52;;;;;;;10.20;2.83;;;15.70;48.40;;;;;;20920136;28;20295;-69
2023/06/04 02:10:54;;;;;;;5.80;2.33;;;15.50;48.80;;;;;;20918448;28;20239;-68
2023/06/04 02:20:57;;;;;;;13.43;5.10;;;15.30;49.00;;;;;;20918733;28;20246;-67
2023/06/04 02:30:59;;;;;;;9.47;3.30;;;15.10;49.10;;;;;;20917787;28;20237;-70
2023/06/04 02:41:01;;;;;;;6.53;2.97;;;14.80;49.30;;;;;;20838246;28;20218;-69
2023/06/04 02:51:02;;;;;;;4.07;1.90;;;14.60;49.70;;;;;;20832545;28;20244;-69
2023/06/04 03:01:04;;;;;;;1.97;1.57;;;14.40;50.00;;;;;;20833146;28;20201;-69
2023/06/04 03:11:06;;;;;;;2.70;1.80;;;14.40;50.40;;;;;;20832603;28;20722;-69
2023/06/04 03:21:11;;;;;;;4.47;2.00;;;14.20;50.70;;;;;;20831656;28;20263;-69
2023/06/04 03:31:13;;;;;;;2.90;1.90;;;14.10;50.90;;;;;;20831000;28;20243;-67
2023/06/04 03:41:15;;;;;;;4.03;1.80;;;14.00;51.00;;;;;;20913136;28;20236;-70
2023/06/04 03:51:17;;;;;;;3.83;1.70;;;13.90;51.10;;;;;;20912289;28;20244;-69
2023/06/04 04:01:18;;;;;;;2.43;1.60;;;13.80;51.10;;;;;;20913109;28;20570;-69
2023/06/04 04:11:20;;;;;;;2.13;1.50;;;13.80;51.60;;;;;;20928940;28;20694;-70
2023/06/04 04:21:23;;;;;;;3.07;1.70;;;13.90;51.90;;;;;;20927805;28;20212;-61
2023/06/04 04:31:25;;;;;;;3.60;1.63;;;14.00;52.10;;;;;;20927114;28;20717;-60
2023/06/04 04:41:27;;;;;;;2.97;1.80;;;14.10;51.90;;;;;;20845040;28;20241;-60
2023/06/04 04:51:29;;;;;;;2.87;1.80;;;14.30;52.10;;;;;;20843107;28;20236;-61
2023/06/04 05:01:30;;;;;;;2.70;1.67;;;14.50;52.20;;;;;;20842297;28;20295;-69
2023/06/04 05:11:32;;;;;;;2.40;1.60;;;14.70;52.40;;;;;;20842026;28;20244;-60
2023/06/04 05:21:36;;;;;;;3.87;1.60;;;14.90;51.90;;;;;;20838361;28;20231;-60
2023/06/04 05:31:39;;;;;;;2.13;1.70;;;15.20;51.20;;;;;;20840551;28;20246;-67
2023/06/04 05:41:42;;;;;;;4.63;1.70;;;15.50;50.30;;;;;;20921857;28;20663;-64
2023/06/04 05:51:43;;;;;;;3.07;1.90;;;15.70;49.60;;;;;;20920377;28;20238;-67
2023/06/04 06:01:47;;;;;;;4.47;1.70;;;16.10;49.00;;;;;;20919897;28;20619;-68
2023/06/04 06:11:49;;;;;;;3.17;1.67;;;16.50;48.20;;;;;;20919240;28;20241;-65
2023/06/04 06:21:51;;;;;;;7.10;1.70;;;16.80;47.30;;;;;;20918108;28;20705;-65
2023/06/04 06:31:52;;;;;;;2.53;1.63;;;17.20;46.60;;;;;;20911821;28;20236;-63
2023/06/04 06:41:55;;;;;;;3.07;1.83;;;17.60;46.00;;;;;;20834780;28;20216;-61
2023/06/04 06:51:56;;;;;;;2.50;1.47;;;18.10;45.10;;;;;;20832925;28;20332;-70
2023/06/04 07:01:58;;;;;;;2.70;1.70;;;18.50;45.30;;;;;;20831365;28;20702;-70
2023/06/04 07:12:00;;;;;;;4.70;1.80;;;18.80;45.60;;;;;;20832057;28;20296;-67
2023/06/04 07:22:02;;;;;;;4.10;1.60;;;19.20;45.30;;;;;;20831137;28;20239;-68
2023/06/04 07:32:04;;;;;;;3.17;1.70;;;19.60;44.30;;;;;;20835977;28;20231;-69
2023/06/04 07:42:07;;;;;;;2.20;1.67;;;19.70;45.10;;;;;;20912204;28;20210;-61
2023/06/04 07:52:08;;;;;;;8.80;2.27;;;20.00;44.60;;;;;;20911989;28;20255;-60
2023/06/04 08:02:11;;;;;;;2.10;1.60;;;20.30;44.00;;;;;;20910358;28;20207;-61
2023/06/04 08:12:13;;;;;;;6.37;1.90;;;20.30;44.20;;;;;;20911564;28;20243;-61
2023/06/04 08:22:15;;;;;;;3.10;1.63;;;20.60;43.80;;;;;;20911087;28;20591;-70
2023/06/04 08:32:17;;;;;;;4.50;1.80;;;20.80;43.20;;;;;;20902739;28;20233;-70
2023/06/04 08:42:26;;;;;;;4.20;1.60;;;20.80;42.70;;;;;;20829524;28;20627;-61
2023/06/04 08:52:28;;;;;;;1.93;1.60;;;21.10;42.00;;;;;;20835247;28;20335;-61
2023/06/04 09:02:30;;;;;;;2.43;1.70;;;21.30;41.50;;;;;;20842190;28;20220;-61
2023/06/04 09:12:35;;;;;;;2.63;1.70;;;21.50;40.50;;;;;;20841960;28;20687;-60
2023/06/04 09:22:37;;;;;;;5.30;1.70;;;21.70;39.90;;;;;;20841384;28;20209;-68
2023/06/04 09:32:39;;;;;;;1.70;1.57;;;21.90;39.30;;;;;;20850448;28;20231;-67
2023/06/04 09:42:42;;;;;;;3.47;1.70;;;22.20;38.90;;;;;;20922121;28;20208;-61
2023/06/04 09:52:44;;;;;;;4.13;1.90;;;22.30;38.60;;;;;;20920936;28;20250;-62
2023/06/04 10:02:47;;;;;;;5.33;1.60;;;22.40;38.10;;;;;;20920338;28;20226;-62
2023/06/04 10:12:54;;;;;;;2.63;1.40;;;22.50;36.80;;;;;;20920033;28;20236;-65
2023/06/04 10:22:57;;;;;;;3.97;1.60;;;22.70;35.90;;;;;;20918952;28;20616;-61
2023/06/04 10:32:59;;;;;;;3.30;1.60;;;22.90;35.40;;;;;;20905665;28;20244;-61
2023/06/04 10:43:08;;;;;;;3.00;1.60;;;22.90;34.60;;;;;;20835629;28;20201;-64
2023/06/04 10:53:10;;;;;;;4.70;1.50;;;23.00;34.00;;;;;;20833533;28;20244;-69
2023/06/04 11:03:12;;;;;;;5.10;1.70;;;23.20;33.40;;;;;;20833044;28;20299;-66
2023/06/04 11:13:14;;;;;;;3.10;1.80;;;23.30;33.00;;;;;;20831937;28;20274;-67
2023/06/04 11:23:17;;;;;;;5.57;1.93;;;23.30;33.10;;;;;;20831298;28;20222;-66
2023/06/04 11:33:19;;;;;;;9.67;1.67;;;23.40;33.10;;;;;;20847080;28;20231;-67
2023/06/04 11:43:23;;;;;;;2.00;1.50;;;23.60;32.80;;;;;;20913092;28;20231;-64
2023/06/04 11:53:27;;;;;;;2.17;1.60;;;23.90;32.60;;;;;;20912731;28;20235;-65
2023/06/04 12:03:37;;;;;;;2.60;1.40;;;24.20;32.20;;;;;;20911896;28;20226;-66
2023/06/04 12:13:39;;;;;;;3.70;1.50;;;24.50;31.60;;;;;;20912079;28;20656;-64
2023/06/04 12:23:41;;;;;;;4.33;1.90;;;24.70;30.80;;;;;;20914842;28;20635;-61
2023/06/04 12:33:43;;;;;;;3.13;1.80;;;24.90;31.10;;;;;;20907679;28;20228;-62
2023/06/04 12:43:44;;;;;;;2.90;1.70;;;25.10;30.70;;;;;;20843910;28;20594;-67
2023/06/04 12:53:47;;;;;;;5.50;1.83;;;25.10;30.20;;;;;;20842791;28;20641;-62
2023/06/04 13:03:49;;;;;;;1.73;1.50;;;25.10;30.40;;;;;;20842909;28;20212;-70
2023/06/04 13:13:51;;;;;;;2.60;1.53;;;25.20;30.30;;;;;;20844546;28;20303;-71
2023/06/04 13:23:53;;;;;;;3.53;1.70;;;25.20;30.00;;;;;;20845220;28;20205;-65
2023/06/04 13:33:54;;;;;;;2.87;1.50;;;25.30;30.00;;;;;;20860293;28;20232;-63
2023/06/04 13:43:56;;;;;;;3.47;1.80;;;25.40;29.80;;;;;;20921574;28;20266;-63
2023/06/04 13:53:58;;;;;;;3.93;1.83;;;25.60;29.70;;;;;;20921077;28;20239;-67
2023/06/04 14:04:00;;;;;;;3.27;1.60;;;25.80;29.60;;;;;;20920048;28;20204;-60
2023/06/04 14:14:02;;;;;;;5.73;1.70;;;26.10;29.30;;;;;;20920134;28;20241;-66
2023/06/04 14:24:04;;;;;;;4.30;1.67;;;26.50;29.40;;;;;;20919355;28;20230;-67
2023/06/04 14:34:09;;;;;;;2.10;1.70;;;29.80;27.50;;;;;;20895289;28;20688;-61
2023/06/04 14:44:10;;;;;;;2.05;1.77;;;29.10;27.60;;;;;;20849280;28;20208;-68
2023/06/04 14:54:12;;;;;;;2.42;1.60;;;29.50;27.60;;;;;;20833440;28;20643;-70
2023/06/04 15:04:14;;;;;;;3.13;1.90;;;31.00;26.90;;;;;;20832957;28;20228;-65
2023/06/04 15:14:16;;;;;;;3.17;1.88;;;31.30;26.30;;;;;;20832339;28;20240;-69
2023/06/04 15:24:17;;;;;;;3.42;1.50;;;32.60;25.60;;;;;;20831857;28;20219;-65
2023/06/04 15:34:19;;;;;;;3.90;1.70;;;33.80;24.60;;;;;;20855709;28;20243;-67
2023/06/04 15:44:23;;;;;;;3.33;1.85;;;31.70;25.00;;;;;;20912976;28;20236;-67
2023/06/04 15:54:24;;;;;;;4.75;1.73;;;34.30;23.40;;;;;;20913181;28;20258;-62
2023/06/04 16:04:45;;;;;;;4.40;1.95;;;35.30;22.90;;;;;;20916540;28;20208;-64
2023/06/04 16:14:47;;;;;;;1.98;1.70;;;38.80;21.70;;;;;;20915352;28;20242;-65
2023/06/04 16:24:48;;;;;;;4.10;1.85;;;41.60;20.50;;;;;;20911728;28;20204;-62
2023/06/04 16:34:50;;;;;;;2.22;1.80;;;37.80;21.10;;;;;;20882386;28;20235;-61
2023/06/04 16:44:52;;;;;;;3.20;1.70;;;33.40;22.70;;;;;;20827879;28;20233;-60
2023/06/04 16:54:54;;;;;;;1.80;1.70;;;32.90;23.30;;;;;;20828429;28;20242;-68
2023/06/04 17:04:56;;;;;;;3.67;1.88;;;38.20;21.20;;;;;;20827497;28;20208;-67
2023/06/04 17:14:58;;;;;;;1.98;1.60;;;38.50;20.90;;;;;;20835907;28;20719;-63
2023/06/04 17:25:00;;;;;;;4.80;1.85;;;42.70;19.60;;;;;;20841841;28;20255;-68
2023/06/04 17:35:02;;;;;;;5.75;1.80;;;40.90;19.80;;;;;;20870715;28;20234;-68
2023/06/04 17:45:09;;;;;;;1.92;1.65;;;43.30;18.80;;;;;;20922580;28;20315;-70
2023/06/04 17:55:11;;;;;;;1.70;1.60;;;43.40;18.70;;;;;;20922514;28;20717;-70
2023/06/04 18:05:13;;;;;;;2.00;1.60;;;41.10;19.10;;;;;;20920184;28;20287;-61
2023/06/04 18:15:14;;;;;;;2.72;2.05;;;33.60;21.80;;;;;;20919307;28;20227;-61
2023/06/04 18:25:16;;;;;;;2.53;2.20;;;30.10;23.60;;;;;;20918894;28;20222;-61
2023/06/04 18:35:18;;;;;;;2.83;1.90;;;28.20;24.90;;;;;;20885743;28;20228;-61
2023/06/04 18:45:20;;;;;;;5.60;2.00;;;26.80;26.10;;;;;;20834784;28;20256;-61
2023/06/04 18:55:21;;;;;;;3.63;2.30;;;25.80;27.60;;;;;;20834007;28;20232;-70
2023/06/04 19:05:23;;;;;;;6.10;2.40;;;25.00;29.00;;;;;;20833240;28;20212;-65
2023/06/04 19:15:25;;;;;;;3.93;2.73;;;24.30;29.80;;;;;;20832606;28;20331;-68
2023/06/04 19:25:26;;;;;;;6.57;2.87;;;23.80;30.40;;;;;;20831911;28;20227;-68
2023/06/04 19:35:28;;;;;;;3.40;2.60;;;23.30;31.20;;;;;;20864289;28;20585;-66
2023/06/04 19:45:30;;;;;;;5.50;3.17;;;22.90;32.00;;;;;;20913094;28;20231;-68
2023/06/04 19:55:31;;;;;;;4.87;2.77;;;22.50;32.70;;;;;;20912765;28;20235;-61
2023/06/04 20:05:33;;;;;;;3.80;2.40;;;22.20;33.40;;;;;;20912094;28;20301;-61
2023/06/04 20:15:35;;;;;;;2.43;2.07;;;21.90;34.00;;;;;;20911772;28;20231;-62
2023/06/04 20:25:36;;;;;;;3.67;2.17;;;21.60;34.60;;;;;;20911622;28;20218;-61
2023/06/04 20:35:38;;;;;;;3.20;2.17;;;21.40;35.10;;;;;;20875897;28;20247;-60
2023/06/04 20:45:40;;;;;;;3.63;2.00;;;21.10;35.50;;;;;;20829924;28;20528;-64
2023/06/04 20:55:42;;;;;;;2.67;1.73;;;21.00;35.90;;;;;;20858989;28;20267;-64
2023/06/04 21:05:44;;;;;;;7.10;2.00;;;20.80;36.10;;;;;;20842549;28;20218;-60
2023/06/04 21:15:46;;;;;;;5.47;2.30;;;20.70;36.40;;;;;;20841672;28;20239;-60
2023/06/04 21:25:49;;;;;;;2.93;2.10;;;20.60;37.10;;;;;;20842978;28;20216;-69
2023/06/04 21:35:50;;;;;;;2.90;2.00;;;20.40;38.00;;;;;;20876963;28;20233;-59
2023/06/04 21:45:52;;;;;;;2.90;2.00;;;20.20;38.70;;;;;;20920960;28;20330;-69
2023/06/04 21:55:54;;;;;;;4.30;1.90;;;20.10;39.10;;;;;;20921016;28;20291;-66
2023/06/04 22:05:56;;;;;;;4.27;2.17;;;20.00;39.40;;;;;;20920590;28;20212;-68
2023/06/04 22:15:57;;;;;;;2.53;1.73;;;19.80;39.60;;;;;;20919514;28;20344;-68
2023/06/04 22:25:59;;;;;;;4.60;1.90;;;19.70;39.70;;;;;;20919314;28;20214;-69
2023/06/04 22:36:01;;;;;;;3.40;1.77;;;19.50;39.70;;;;;;20879926;28;20237;-69
2023/06/04 22:46:03;;;;;;;2.50;1.83;;;19.40;39.70;;;;;;20834814;28;20754;-65
2023/06/04 22:56:06;;;;;;;3.70;1.90;;;19.20;39.80;;;;;;20834436;28;20335;-68
2023/06/04 23:06:08;;;;;;;3.43;1.90;;;19.10;40.20;;;;;;20833027;28;20322;-68
2023/06/04 23:16:10;;;;;;;6.23;1.70;;;18.80;41.20;;;;;;20831911;28;20240;-68
2023/06/04 23:26:12;;;;;;;2.37;1.70;;;18.70;42.50;;;;;;20832323;28;20213;-68
2023/06/04 23:36:14;;;;;;;2.57;1.80;;;18.60;42.90;;;;;;20871184;28;20239;-65
2023/06/04 23:46:15;;;;;;;2.67;2.07;;;18.40;42.50;;;;;;20912836;28;20240;-69
2023/06/04 23:56:18;;;;;;;4.80;2.10;;;18.20;43.80;;;;;;20912481;28;20243;-67
